Terminal Aerodrome Forecast
Issued by NWS

Home | Current Version | Previous Version | Text Only | Print | Product List | Glossary On
Versions: 1 2 3 4 5 6 7 8 9 10 11 12 13 14 15
000
FTUS46 KSEW 261302 AAA
TAFBLI
TAF AMD
KBLI 261302Z 2613/2712 17012G20KT P6SM VCSH SCT020 BKN045
     FM261800 18013G22KT P6SM VCSH SCT025 BKN035
     FM270000 18012KT P6SM BKN030
     FM270600 18010KT P6SM OVC025=

USA.gov is the U.S. government's official web portal to all federal, state and local government web resources and services.